New Rooks County (RCP)
Stockton, KS
Field Elevation: 1999
Lat: 39°20.80N  Long: 99°18.28W
CTAF/Unicom Freq: 122.9000
   
    
Weather Advisories
2017-12-14   17:03 Z
Altimeter 30.12" Hg
Wind 280° @ 15 KT
Gusts 20 KT
Visibility 10 SM
Temperature 7° C (45° F)
Dewpoint -2° C (28° F)
Relative Humidity 52%
Density Altitude --
Condensation Altitude 6,400 feet
Wind Chill: 3° C (37° F)
Wind and Runways
Indicated Runway = 36
Headwind = 3 kt
Crosswind = 15 kt
History
 
 
 
More Info
All DigiWx sites map
NOAA Forecast
 
Airport IQ 5010
(FLV) Sherman Airfield
(K68) Garnett Municipal Airport
 
about DigiWx
 
FAA Disclaimer: The data displayed is for advisory purposes only and is not to be used for flight planning or operations. For official data, please call (not available) to hear the current automated AWOS voice message.
  METAR RCP 141703Z AUTO 28015G20KT VIS 10 SM 07/M02 A3012